sensor_id;sensor_type;location;lat;lon;timestamp;temperature;humidity
17774;DHT22;9011;33.236;-97.118;2023-08-24T00:01:03;39.10;75.30
17774;DHT22;9011;33.236;-97.118;2023-08-24T00:03:31;38.90;76.10
17774;DHT22;9011;33.236;-97.118;2023-08-24T00:05:59;38.80;76.00
17774;DHT22;9011;33.236;-97.118;2023-08-24T00:08:27;38.70;77.20
17774;DHT22;9011;33.236;-97.118;2023-08-24T00:10:54;38.60;77.40
17774;DHT22;9011;33.236;-97.118;2023-08-24T00:13:22;38.40;77.30
17774;DHT22;9011;33.236;-97.118;2023-08-24T00:15:50;38.30;77.30
17774;DHT22;9011;33.236;-97.118;2023-08-24T00:18:20;38.20;77.40
17774;DHT22;9011;33.236;-97.118;2023-08-24T00:20:48;38.00;78.20
17774;DHT22;9011;33.236;-97.118;2023-08-24T00:23:17;37.90;78.30
17774;DHT22;9011;33.236;-97.118;2023-08-24T00:25:45;37.80;78.80
17774;DHT22;9011;33.236;-97.118;2023-08-24T00:28:12;37.80;78.60
17774;DHT22;9011;33.236;-97.118;2023-08-24T00:30:40;37.70;79.00
17774;DHT22;9011;33.236;-97.118;2023-08-24T00:33:08;37.70;78.90
17774;DHT22;9011;33.236;-97.118;2023-08-24T00:35:36;37.60;79.00
17774;DHT22;9011;33.236;-97.118;2023-08-24T00:38:04;37.60;78.90
17774;DHT22;9011;33.236;-97.118;2023-08-24T00:40:31;37.30;79.70
17774;DHT22;9011;33.236;-97.118;2023-08-24T00:43:00;37.40;79.70
17774;DHT22;9011;33.236;-97.118;2023-08-24T00:45:28;37.30;79.50
17774;DHT22;9011;33.236;-97.118;2023-08-24T00:47:59;37.30;79.70
17774;DHT22;9011;33.236;-97.118;2023-08-24T00:50:28;37.10;79.60
17774;DHT22;9011;33.236;-97.118;2023-08-24T00:52:55;37.00;80.10
17774;DHT22;9011;33.236;-97.118;2023-08-24T00:55:23;37.00;80.50
17774;DHT22;9011;33.236;-97.118;2023-08-24T00:57:52;36.80;80.80
17774;DHT22;9011;33.236;-97.118;2023-08-24T01:00:20;36.70;80.90
17774;DHT22;9011;33.236;-97.118;2023-08-24T01:02:47;36.50;81.50
17774;DHT22;9011;33.236;-97.118;2023-08-24T01:05:15;36.50;81.90
17774;DHT22;9011;33.236;-97.118;2023-08-24T01:07:43;36.30;82.10
17774;DHT22;9011;33.236;-97.118;2023-08-24T01:10:11;36.20;82.20
17774;DHT22;9011;33.236;-97.118;2023-08-24T01:12:57;36.20;82.10
17774;DHT22;9011;33.236;-97.118;2023-08-24T01:15:32;36.10;82.50
17774;DHT22;9011;33.236;-97.118;2023-08-24T01:18:05;36.10;83.00
17774;DHT22;9011;33.236;-97.118;2023-08-24T01:20:35;35.90;82.70
17774;DHT22;9011;33.236;-97.118;2023-08-24T01:23:14;35.90;82.90
17774;DHT22;9011;33.236;-97.118;2023-08-24T01:25:51;35.80;83.40
17774;DHT22;9011;33.236;-97.118;2023-08-24T01:28:20;35.80;83.50
17774;DHT22;9011;33.236;-97.118;2023-08-24T01:30:48;35.70;83.60
17774;DHT22;9011;33.236;-97.118;2023-08-24T01:33:16;35.70;83.80
17774;DHT22;9011;33.236;-97.118;2023-08-24T01:35:44;35.70;84.50
17774;DHT22;9011;33.236;-97.118;2023-08-24T01:38:12;35.50;84.80
17774;DHT22;9011;33.236;-97.118;2023-08-24T01:40:50;35.50;85.40
17774;DHT22;9011;33.236;-97.118;2023-08-24T01:43:23;35.40;85.80
17774;DHT22;9011;33.236;-97.118;2023-08-24T01:45:53;35.40;85.60
17774;DHT22;9011;33.236;-97.118;2023-08-24T01:48:23;35.30;86.00
17774;DHT22;9011;33.236;-97.118;2023-08-24T01:50:52;35.10;86.40
17774;DHT22;9011;33.236;-97.118;2023-08-24T01:53:19;35.00;87.00
17774;DHT22;9011;33.236;-97.118;2023-08-24T01:55:47;35.00;87.40
17774;DHT22;9011;33.236;-97.118;2023-08-24T01:58:15;34.90;87.30
17774;DHT22;9011;33.236;-97.118;2023-08-24T02:00:44;34.80;87.40
17774;DHT22;9011;33.236;-97.118;2023-08-24T02:03:11;34.80;87.70
17774;DHT22;9011;33.236;-97.118;2023-08-24T02:05:39;34.70;88.10
17774;DHT22;9011;33.236;-97.118;2023-08-24T02:08:06;34.60;88.60
17774;DHT22;9011;33.236;-97.118;2023-08-24T02:10:34;34.50;88.90
17774;DHT22;9011;33.236;-97.118;2023-08-24T02:13:02;34.40;89.00
17774;DHT22;9011;33.236;-97.118;2023-08-24T02:15:29;34.40;89.50
17774;DHT22;9011;33.236;-97.118;2023-08-24T02:17:58;34.40;89.70
17774;DHT22;9011;33.236;-97.118;2023-08-24T02:20:25;34.30;90.10
17774;DHT22;9011;33.236;-97.118;2023-08-24T02:22:53;33.90;90.60
17774;DHT22;9011;33.236;-97.118;2023-08-24T02:25:21;33.90;90.50
17774;DHT22;9011;33.236;-97.118;2023-08-24T02:27:48;33.80;90.60
17774;DHT22;9011;33.236;-97.118;2023-08-24T02:30:16;33.80;90.80
17774;DHT22;9011;33.236;-97.118;2023-08-24T02:32:43;33.60;91.20
17774;DHT22;9011;33.236;-97.118;2023-08-24T02:35:12;33.20;91.50
17774;DHT22;9011;33.236;-97.118;2023-08-24T02:37:39;33.20;91.90
17774;DHT22;9011;33.236;-97.118;2023-08-24T02:40:08;33.30;91.80
17774;DHT22;9011;33.236;-97.118;2023-08-24T02:42:36;33.30;92.00
17774;DHT22;9011;33.236;-97.118;2023-08-24T02:45:04;33.10;92.00
17774;DHT22;9011;33.236;-97.118;2023-08-24T02:47:32;33.20;92.10
17774;DHT22;9011;33.236;-97.118;2023-08-24T02:50:00;33.00;92.30
17774;DHT22;9011;33.236;-97.118;2023-08-24T02:52:28;33.10;92.30
17774;DHT22;9011;33.236;-97.118;2023-08-24T02:54:56;33.10;92.30
17774;DHT22;9011;33.236;-97.118;2023-08-24T02:57:23;33.00;92.40
17774;DHT22;9011;33.236;-97.118;2023-08-24T02:59:51;32.90;92.60
17774;DHT22;9011;33.236;-97.118;2023-08-24T03:02:19;32.90;92.60
17774;DHT22;9011;33.236;-97.118;2023-08-24T03:04:46;32.90;92.60
17774;DHT22;9011;33.236;-97.118;2023-08-24T03:07:14;32.90;92.70
17774;DHT22;9011;33.236;-97.118;2023-08-24T03:09:42;32.90;92.80
17774;DHT22;9011;33.236;-97.118;2023-08-24T03:12:10;32.90;93.00
17774;DHT22;9011;33.236;-97.118;2023-08-24T03:14:38;32.90;93.00
17774;DHT22;9011;33.236;-97.118;2023-08-24T03:17:06;32.90;93.00
17774;DHT22;9011;33.236;-97.118;2023-08-24T03:19:34;32.80;93.20
17774;DHT22;9011;33.236;-97.118;2023-08-24T03:22:01;32.70;93.50
17774;DHT22;9011;33.236;-97.118;2023-08-24T03:24:29;32.60;93.60
17774;DHT22;9011;33.236;-97.118;2023-08-24T03:26:57;32.60;93.80
17774;DHT22;9011;33.236;-97.118;2023-08-24T03:29:25;32.60;94.20
17774;DHT22;9011;33.236;-97.118;2023-08-24T03:31:53;32.40;94.10
17774;DHT22;9011;33.236;-97.118;2023-08-24T03:34:20;32.40;94.30
17774;DHT22;9011;33.236;-97.118;2023-08-24T03:36:48;32.40;94.30
17774;DHT22;9011;33.236;-97.118;2023-08-24T03:39:16;32.40;94.40
17774;DHT22;9011;33.236;-97.118;2023-08-24T03:41:43;32.40;94.40
17774;DHT22;9011;33.236;-97.118;2023-08-24T03:44:12;32.30;94.50
17774;DHT22;9011;33.236;-97.118;2023-08-24T03:46:39;32.30;94.60
17774;DHT22;9011;33.236;-97.118;2023-08-24T03:49:07;32.20;94.60
17774;DHT22;9011;33.236;-97.118;2023-08-24T03:51:35;32.20;94.70
17774;DHT22;9011;33.236;-97.118;2023-08-24T03:54:03;32.10;94.90
17774;DHT22;9011;33.236;-97.118;2023-08-24T03:56:31;32.00;94.90
17774;DHT22;9011;33.236;-97.118;2023-08-24T03:58:59;32.00;94.80
17774;DHT22;9011;33.236;-97.118;2023-08-24T04:01:28;32.10;95.10
17774;DHT22;9011;33.236;-97.118;2023-08-24T04:03:55;32.00;94.90
17774;DHT22;9011;33.236;-97.118;2023-08-24T04:06:24;32.00;95.00
17774;DHT22;9011;33.236;-97.118;2023-08-24T04:08:51;32.00;94.90
17774;DHT22;9011;33.236;-97.118;2023-08-24T04:11:19;31.90;95.00
17774;DHT22;9011;33.236;-97.118;2023-08-24T04:13:47;31.70;95.10
17774;DHT22;9011;33.236;-97.118;2023-08-24T04:16:15;31.70;95.20
17774;DHT22;9011;33.236;-97.118;2023-08-24T04:18:44;31.70;95.10
17774;DHT22;9011;33.236;-97.118;2023-08-24T04:21:11;31.60;95.20
17774;DHT22;9011;33.236;-97.118;2023-08-24T04:23:39;31.50;95.50
17774;DHT22;9011;33.236;-97.118;2023-08-24T04:26:11;31.50;95.30
17774;DHT22;9011;33.236;-97.118;2023-08-24T04:28:39;31.60;95.20
17774;DHT22;9011;33.236;-97.118;2023-08-24T04:31:07;31.70;95.40
17774;DHT22;9011;33.236;-97.118;2023-08-24T04:33:34;31.60;95.50
17774;DHT22;9011;33.236;-97.118;2023-08-24T04:36:03;31.60;95.30
17774;DHT22;9011;33.236;-97.118;2023-08-24T04:38:31;31.60;95.40
17774;DHT22;9011;33.236;-97.118;2023-08-24T04:40:58;31.60;95.30
17774;DHT22;9011;33.236;-97.118;2023-08-24T04:43:26;31.50;95.40
17774;DHT22;9011;33.236;-97.118;2023-08-24T04:45:54;31.40;95.40
17774;DHT22;9011;33.236;-97.118;2023-08-24T04:48:22;31.50;95.20
17774;DHT22;9011;33.236;-97.118;2023-08-24T04:50:50;31.40;95.50
17774;DHT22;9011;33.236;-97.118;2023-08-24T04:53:20;31.50;95.40
17774;DHT22;9011;33.236;-97.118;2023-08-24T04:55:48;31.40;95.40
17774;DHT22;9011;33.236;-97.118;2023-08-24T04:58:15;31.40;95.40
17774;DHT22;9011;33.236;-97.118;2023-08-24T05:00:43;31.40;95.40
17774;DHT22;9011;33.236;-97.118;2023-08-24T05:03:10;31.40;95.40
17774;DHT22;9011;33.236;-97.118;2023-08-24T05:05:38;31.40;95.40
17774;DHT22;9011;33.236;-97.118;2023-08-24T05:08:06;31.40;95.60
17774;DHT22;9011;33.236;-97.118;2023-08-24T05:10:37;31.40;95.60
17774;DHT22;9011;33.236;-97.118;2023-08-24T05:13:05;31.20;95.70
17774;DHT22;9011;33.236;-97.118;2023-08-24T05:15:32;31.20;95.70
17774;DHT22;9011;33.236;-97.118;2023-08-24T05:18:00;31.20;95.90
17774;DHT22;9011;33.236;-97.118;2023-08-24T05:20:28;31.20;96.00
17774;DHT22;9011;33.236;-97.118;2023-08-24T05:22:56;31.20;96.20
17774;DHT22;9011;33.236;-97.118;2023-08-24T05:25:24;31.20;96.30
17774;DHT22;9011;33.236;-97.118;2023-08-24T05:27:52;31.10;96.40
17774;DHT22;9011;33.236;-97.118;2023-08-24T05:30:20;31.00;96.60
17774;DHT22;9011;33.236;-97.118;2023-08-24T05:32:47;31.10;96.70
17774;DHT22;9011;33.236;-97.118;2023-08-24T05:35:15;31.00;96.80
17774;DHT22;9011;33.236;-97.118;2023-08-24T05:37:43;30.90;96.90
17774;DHT22;9011;33.236;-97.118;2023-08-24T05:40:11;30.90;97.00
17774;DHT22;9011;33.236;-97.118;2023-08-24T05:42:38;30.90;97.00
17774;DHT22;9011;33.236;-97.118;2023-08-24T05:45:08;30.90;97.10
17774;DHT22;9011;33.236;-97.118;2023-08-24T05:47:35;30.90;97.10
17774;DHT22;9011;33.236;-97.118;2023-08-24T05:50:03;30.90;97.30
17774;DHT22;9011;33.236;-97.118;2023-08-24T05:52:31;30.80;97.30
17774;DHT22;9011;33.236;-97.118;2023-08-24T05:54:59;30.80;97.50
17774;DHT22;9011;33.236;-97.118;2023-08-24T05:57:26;30.80;97.60
17774;DHT22;9011;33.236;-97.118;2023-08-24T05:59:54;30.70;97.70
17774;DHT22;9011;33.236;-97.118;2023-08-24T06:02:22;30.50;97.90
17774;DHT22;9011;33.236;-97.118;2023-08-24T06:04:50;30.50;98.00
17774;DHT22;9011;33.236;-97.118;2023-08-24T06:07:17;30.40;98.10
17774;DHT22;9011;33.236;-97.118;2023-08-24T06:09:45;30.40;98.30
17774;DHT22;9011;33.236;-97.118;2023-08-24T06:12:13;30.30;98.60
17774;DHT22;9011;33.236;-97.118;2023-08-24T06:14:40;30.30;98.90
17774;DHT22;9011;33.236;-97.118;2023-08-24T06:17:08;30.20;99.00
17774;DHT22;9011;33.236;-97.118;2023-08-24T06:19:36;30.30;99.10
17774;DHT22;9011;33.236;-97.118;2023-08-24T06:22:04;30.30;99.10
17774;DHT22;9011;33.236;-97.118;2023-08-24T06:24:32;30.40;99.20
17774;DHT22;9011;33.236;-97.118;2023-08-24T06:27:00;30.40;99.00
17774;DHT22;9011;33.236;-97.118;2023-08-24T06:29:28;30.40;99.00
17774;DHT22;9011;33.236;-97.118;2023-08-24T06:31:56;30.40;99.00
17774;DHT22;9011;33.236;-97.118;2023-08-24T06:34:23;30.40;99.00
17774;DHT22;9011;33.236;-97.118;2023-08-24T06:36:53;30.30;99.20
17774;DHT22;9011;33.236;-97.118;2023-08-24T06:39:22;30.20;99.20
17774;DHT22;9011;33.236;-97.118;2023-08-24T06:41:51;30.20;99.30
17774;DHT22;9011;33.236;-97.118;2023-08-24T06:44:18;30.20;99.40
17774;DHT22;9011;33.236;-97.118;2023-08-24T06:46:46;30.20;99.40
17774;DHT22;9011;33.236;-97.118;2023-08-24T06:49:14;30.20;99.50
17774;DHT22;9011;33.236;-97.118;2023-08-24T06:51:41;30.10;99.70
17774;DHT22;9011;33.236;-97.118;2023-08-24T06:54:10;30.10;99.60
17774;DHT22;9011;33.236;-97.118;2023-08-24T06:56:37;30.10;99.70
17774;DHT22;9011;33.236;-97.118;2023-08-24T06:59:05;30.00;99.90
17774;DHT22;9011;33.236;-97.118;2023-08-24T07:01:32;30.00;99.90
17774;DHT22;9011;33.236;-97.118;2023-08-24T07:04:00;29.80;99.90
17774;DHT22;9011;33.236;-97.118;2023-08-24T07:06:28;29.70;99.90
17774;DHT22;9011;33.236;-97.118;2023-08-24T07:08:55;29.70;99.90
17774;DHT22;9011;33.236;-97.118;2023-08-24T07:11:24;29.50;99.90
17774;DHT22;9011;33.236;-97.118;2023-08-24T07:13:52;29.40;99.90
17774;DHT22;9011;33.236;-97.118;2023-08-24T07:16:20;29.50;99.90
17774;DHT22;9011;33.236;-97.118;2023-08-24T07:18:47;29.60;99.90
17774;DHT22;9011;33.236;-97.118;2023-08-24T07:21:15;29.70;99.90
17774;DHT22;9011;33.236;-97.118;2023-08-24T07:23:43;29.50;99.90
17774;DHT22;9011;33.236;-97.118;2023-08-24T07:26:12;29.60;99.90
17774;DHT22;9011;33.236;-97.118;2023-08-24T07:28:40;29.60;99.90
17774;DHT22;9011;33.236;-97.118;2023-08-24T07:31:08;29.50;99.90
17774;DHT22;9011;33.236;-97.118;2023-08-24T07:33:37;29.50;99.90
17774;DHT22;9011;33.236;-97.118;2023-08-24T07:36:05;29.40;99.90
17774;DHT22;9011;33.236;-97.118;2023-08-24T07:38:33;29.40;99.90
17774;DHT22;9011;33.236;-97.118;2023-08-24T07:41:01;29.40;99.90
17774;DHT22;9011;33.236;-97.118;2023-08-24T07:43:29;29.50;99.90
17774;DHT22;9011;33.236;-97.118;2023-08-24T07:45:58;29.40;99.90
17774;DHT22;9011;33.236;-97.118;2023-08-24T07:48:25;29.50;99.90
17774;DHT22;9011;33.236;-97.118;2023-08-24T07:50:53;29.40;99.90
17774;DHT22;9011;33.236;-97.118;2023-08-24T07:53:20;29.40;99.90
17774;DHT22;9011;33.236;-97.118;2023-08-24T07:55:48;29.50;99.90
17774;DHT22;9011;33.236;-97.118;2023-08-24T07:58:16;29.40;99.90
17774;DHT22;9011;33.236;-97.118;2023-08-24T08:00:43;29.50;99.90
17774;DHT22;9011;33.236;-97.118;2023-08-24T08:03:12;29.50;99.90
17774;DHT22;9011;33.236;-97.118;2023-08-24T08:05:40;29.50;99.90
17774;DHT22;9011;33.236;-97.118;2023-08-24T08:08:07;29.40;99.90
17774;DHT22;9011;33.236;-97.118;2023-08-24T08:10:35;29.40;99.90
17774;DHT22;9011;33.236;-97.118;2023-08-24T08:13:03;29.30;99.90
17774;DHT22;9011;33.236;-97.118;2023-08-24T08:15:30;29.30;99.90
17774;DHT22;9011;33.236;-97.118;2023-08-24T08:17:58;29.40;99.90
17774;DHT22;9011;33.236;-97.118;2023-08-24T08:20:27;29.40;99.90
17774;DHT22;9011;33.236;-97.118;2023-08-24T08:22:54;29.40;99.90
17774;DHT22;9011;33.236;-97.118;2023-08-24T08:25:22;29.40;99.90
17774;DHT22;9011;33.236;-97.118;2023-08-24T08:27:49;29.20;99.90
17774;DHT22;9011;33.236;-97.118;2023-08-24T08:30:17;29.20;99.90
17774;DHT22;9011;33.236;-97.118;2023-08-24T08:32:46;29.20;99.90
17774;DHT22;9011;33.236;-97.118;2023-08-24T08:35:14;29.10;99.90
17774;DHT22;9011;33.236;-97.118;2023-08-24T08:37:43;29.20;99.90
17774;DHT22;9011;33.236;-97.118;2023-08-24T08:40:11;29.20;99.90
17774;DHT22;9011;33.236;-97.118;2023-08-24T08:42:40;29.20;99.90
17774;DHT22;9011;33.236;-97.118;2023-08-24T08:45:09;29.10;99.90
17774;DHT22;9011;33.236;-97.118;2023-08-24T08:47:37;29.20;99.90
17774;DHT22;9011;33.236;-97.118;2023-08-24T08:50:08;29.10;99.90
17774;DHT22;9011;33.236;-97.118;2023-08-24T08:52:36;29.00;99.90
17774;DHT22;9011;33.236;-97.118;2023-08-24T08:55:05;29.00;99.90
17774;DHT22;9011;33.236;-97.118;2023-08-24T08:57:35;28.90;99.90
17774;DHT22;9011;33.236;-97.118;2023-08-24T09:00:04;28.80;99.90
17774;DHT22;9011;33.236;-97.118;2023-08-24T09:02:34;28.70;99.90
17774;DHT22;9011;33.236;-97.118;2023-08-24T09:05:02;28.80;99.90
17774;DHT22;9011;33.236;-97.118;2023-08-24T09:07:30;28.80;99.90
17774;DHT22;9011;33.236;-97.118;2023-08-24T09:09:59;28.60;99.90
17774;DHT22;9011;33.236;-97.118;2023-08-24T09:12:31;28.70;99.90
17774;DHT22;9011;33.236;-97.118;2023-08-24T09:14:59;28.70;99.90
17774;DHT22;9011;33.236;-97.118;2023-08-24T09:17:27;28.70;99.90
17774;DHT22;9011;33.236;-97.118;2023-08-24T09:19:58;28.80;99.90
17774;DHT22;9011;33.236;-97.118;2023-08-24T09:22:26;28.80;99.90
17774;DHT22;9011;33.236;-97.118;2023-08-24T09:24:54;28.70;99.90
17774;DHT22;9011;33.236;-97.118;2023-08-24T09:27:22;28.60;99.90
17774;DHT22;9011;33.236;-97.118;2023-08-24T09:29:51;28.70;99.90
17774;DHT22;9011;33.236;-97.118;2023-08-24T09:32:22;28.60;99.90
17774;DHT22;9011;33.236;-97.118;2023-08-24T09:34:50;28.60;99.90
17774;DHT22;9011;33.236;-97.118;2023-08-24T09:37:18;28.60;99.90
17774;DHT22;9011;33.236;-97.118;2023-08-24T09:39:46;28.60;99.90
17774;DHT22;9011;33.236;-97.118;2023-08-24T09:42:14;28.50;99.90
17774;DHT22;9011;33.236;-97.118;2023-08-24T09:44:44;28.50;99.90
17774;DHT22;9011;33.236;-97.118;2023-08-24T09:47:13;28.50;99.90
17774;DHT22;9011;33.236;-97.118;2023-08-24T09:49:41;28.50;99.90
17774;DHT22;9011;33.236;-97.118;2023-08-24T09:52:09;28.50;99.90
17774;DHT22;9011;33.236;-97.118;2023-08-24T09:54:37;28.50;99.90
17774;DHT22;9011;33.236;-97.118;2023-08-24T09:57:06;28.40;99.90
17774;DHT22;9011;33.236;-97.118;2023-08-24T09:59:36;28.20;99.90
17774;DHT22;9011;33.236;-97.118;2023-08-24T10:02:12;28.20;99.90
17774;DHT22;9011;33.236;-97.118;2023-08-24T10:04:43;28.20;99.90
17774;DHT22;9011;33.236;-97.118;2023-08-24T10:07:12;28.10;99.90
17774;DHT22;9011;33.236;-97.118;2023-08-24T10:09:55;28.00;99.90
17774;DHT22;9011;33.236;-97.118;2023-08-24T10:12:27;28.10;99.90
17774;DHT22;9011;33.236;-97.118;2023-08-24T10:15:00;28.00;99.90
17774;DHT22;9011;33.236;-97.118;2023-08-24T10:17:30;28.00;99.90
17774;DHT22;9011;33.236;-97.118;2023-08-24T10:20:00;28.10;99.90
17774;DHT22;9011;33.236;-97.118;2023-08-24T10:22:29;28.00;99.90
17774;DHT22;9011;33.236;-97.118;2023-08-24T10:24:58;28.00;99.90
17774;DHT22;9011;33.236;-97.118;2023-08-24T10:27:27;28.00;99.90
17774;DHT22;9011;33.236;-97.118;2023-08-24T10:29:55;28.00;99.90
17774;DHT22;9011;33.236;-97.118;2023-08-24T10:32:24;28.10;99.90
17774;DHT22;9011;33.236;-97.118;2023-08-24T10:34:52;28.00;99.90
17774;DHT22;9011;33.236;-97.118;2023-08-24T10:37:27;27.70;99.90
17774;DHT22;9011;33.236;-97.118;2023-08-24T10:39:55;27.70;99.90
17774;DHT22;9011;33.236;-97.118;2023-08-24T10:42:22;27.70;99.90
17774;DHT22;9011;33.236;-97.118;2023-08-24T10:44:52;27.70;99.90
17774;DHT22;9011;33.236;-97.118;2023-08-24T10:47:21;27.70;99.90
17774;DHT22;9011;33.236;-97.118;2023-08-24T10:49:58;27.70;99.90
17774;DHT22;9011;33.236;-97.118;2023-08-24T10:52:31;27.70;99.90
17774;DHT22;9011;33.236;-97.118;2023-08-24T10:55:01;27.70;99.90
17774;DHT22;9011;33.236;-97.118;2023-08-24T10:57:36;27.60;99.90
17774;DHT22;9011;33.236;-97.118;2023-08-24T11:00:05;27.60;99.90
17774;DHT22;9011;33.236;-97.118;2023-08-24T11:02:44;27.50;99.90
17774;DHT22;9011;33.236;-97.118;2023-08-24T11:05:17;27.50;99.90
17774;DHT22;9011;33.236;-97.118;2023-08-24T11:07:57;27.60;99.90
17774;DHT22;9011;33.236;-97.118;2023-08-24T11:10:25;27.60;99.90
17774;DHT22;9011;33.236;-97.118;2023-08-24T11:13:12;27.60;99.90
17774;DHT22;9011;33.236;-97.118;2023-08-24T11:15:44;27.60;99.90
17774;DHT22;9011;33.236;-97.118;2023-08-24T11:18:20;27.60;99.90
17774;DHT22;9011;33.236;-97.118;2023-08-24T11:20:48;27.60;99.90
17774;DHT22;9011;33.236;-97.118;2023-08-24T11:23:18;27.50;99.90
17774;DHT22;9011;33.236;-97.118;2023-08-24T11:25:46;27.40;99.90
17774;DHT22;9011;33.236;-97.118;2023-08-24T11:28:17;27.30;99.90
17774;DHT22;9011;33.236;-97.118;2023-08-24T11:30:47;27.30;99.90
17774;DHT22;9011;33.236;-97.118;2023-08-24T11:33:15;27.20;99.90
17774;DHT22;9011;33.236;-97.118;2023-08-24T11:35:44;27.20;99.90
17774;DHT22;9011;33.236;-97.118;2023-08-24T11:38:12;27.20;99.90
17774;DHT22;9011;33.236;-97.118;2023-08-24T11:40:41;27.20;99.90
17774;DHT22;9011;33.236;-97.118;2023-08-24T11:43:09;27.20;99.90
17774;DHT22;9011;33.236;-97.118;2023-08-24T11:45:37;27.20;99.90
17774;DHT22;9011;33.236;-97.118;2023-08-24T11:48:07;27.10;99.90
17774;DHT22;9011;33.236;-97.118;2023-08-24T11:50:38;27.20;99.90
17774;DHT22;9011;33.236;-97.118;2023-08-24T11:53:07;27.20;99.90
17774;DHT22;9011;33.236;-97.118;2023-08-24T11:55:40;27.10;99.90
17774;DHT22;9011;33.236;-97.118;2023-08-24T11:58:14;27.10;99.90
17774;DHT22;9011;33.236;-97.118;2023-08-24T12:00:43;27.10;99.90
17774;DHT22;9011;33.236;-97.118;2023-08-24T12:03:11;27.00;99.90
17774;DHT22;9011;33.236;-97.118;2023-08-24T12:05:39;26.90;99.90
17774;DHT22;9011;33.236;-97.118;2023-08-24T12:08:07;27.00;99.90
17774;DHT22;9011;33.236;-97.118;2023-08-24T12:10:42;27.00;99.90
17774;DHT22;9011;33.236;-97.118;2023-08-24T12:13:12;27.10;99.90
17774;DHT22;9011;33.236;-97.118;2023-08-24T12:15:41;27.30;99.90
17774;DHT22;9011;33.236;-97.118;2023-08-24T12:18:09;27.20;99.90
17774;DHT22;9011;33.236;-97.118;2023-08-24T12:20:37;27.10;99.90
17774;DHT22;9011;33.236;-97.118;2023-08-24T12:23:06;27.20;99.90
17774;DHT22;9011;33.236;-97.118;2023-08-24T12:25:37;27.20;99.90
17774;DHT22;9011;33.236;-97.118;2023-08-24T12:28:13;27.20;99.90
17774;DHT22;9011;33.236;-97.118;2023-08-24T12:30:45;27.10;99.90
17774;DHT22;9011;33.236;-97.118;2023-08-24T12:33:23;27.10;99.90
17774;DHT22;9011;33.236;-97.118;2023-08-24T12:35:52;27.10;99.90
17774;DHT22;9011;33.236;-97.118;2023-08-24T12:38:19;27.10;99.90
17774;DHT22;9011;33.236;-97.118;2023-08-24T12:40:47;27.10;99.90
17774;DHT22;9011;33.236;-97.118;2023-08-24T12:43:16;27.20;99.90
17774;DHT22;9011;33.236;-97.118;2023-08-24T12:45:43;27.20;99.90
17774;DHT22;9011;33.236;-97.118;2023-08-24T12:48:11;27.30;99.90
17774;DHT22;9011;33.236;-97.118;2023-08-24T12:50:39;27.40;99.90
17774;DHT22;9011;33.236;-97.118;2023-08-24T12:53:06;27.40;99.90
17774;DHT22;9011;33.236;-97.118;2023-08-24T12:55:36;27.50;99.90
17774;DHT22;9011;33.236;-97.118;2023-08-24T12:58:04;27.60;99.90
17774;DHT22;9011;33.236;-97.118;2023-08-24T13:00:32;27.70;99.90
17774;DHT22;9011;33.236;-97.118;2023-08-24T13:03:00;27.80;99.90
17774;DHT22;9011;33.236;-97.118;2023-08-24T13:05:27;27.90;99.90
17774;DHT22;9011;33.236;-97.118;2023-08-24T13:07:55;28.00;99.90
17774;DHT22;9011;33.236;-97.118;2023-08-24T13:10:23;28.10;99.90
17774;DHT22;9011;33.236;-97.118;2023-08-24T13:12:51;28.20;99.90
17774;DHT22;9011;33.236;-97.118;2023-08-24T13:15:19;28.30;99.90
17774;DHT22;9011;33.236;-97.118;2023-08-24T13:17:48;28.40;99.90
17774;DHT22;9011;33.236;-97.118;2023-08-24T13:20:16;28.50;99.90
17774;DHT22;9011;33.236;-97.118;2023-08-24T13:22:44;28.70;99.90
17774;DHT22;9011;33.236;-97.118;2023-08-24T13:25:11;28.80;99.90
17774;DHT22;9011;33.236;-97.118;2023-08-24T13:27:39;29.00;99.90
17774;DHT22;9011;33.236;-97.118;2023-08-24T13:30:07;29.20;99.90
17774;DHT22;9011;33.236;-97.118;2023-08-24T13:32:35;29.30;99.90
17774;DHT22;9011;33.236;-97.118;2023-08-24T13:35:04;29.50;99.90
17774;DHT22;9011;33.236;-97.118;2023-08-24T13:37:31;29.60;99.90
17774;DHT22;9011;33.236;-97.118;2023-08-24T13:39:59;29.80;99.90
17774;DHT22;9011;33.236;-97.118;2023-08-24T13:42:26;29.90;99.90
17774;DHT22;9011;33.236;-97.118;2023-08-24T13:44:54;30.00;99.90
17774;DHT22;9011;33.236;-97.118;2023-08-24T13:47:22;30.20;99.90
17774;DHT22;9011;33.236;-97.118;2023-08-24T13:49:49;30.30;99.90
17774;DHT22;9011;33.236;-97.118;2023-08-24T13:52:18;30.50;99.90
17774;DHT22;9011;33.236;-97.118;2023-08-24T13:54:45;30.80;99.90
17774;DHT22;9011;33.236;-97.118;2023-08-24T13:57:14;30.90;99.90
17774;DHT22;9011;33.236;-97.118;2023-08-24T13:59:41;31.10;99.90
17774;DHT22;9011;33.236;-97.118;2023-08-24T14:02:09;31.20;99.90
17774;DHT22;9011;33.236;-97.118;2023-08-24T14:04:38;31.20;99.90
17774;DHT22;9011;33.236;-97.118;2023-08-24T14:07:05;31.40;99.90
17774;DHT22;9011;33.236;-97.118;2023-08-24T14:09:34;31.50;99.90
17774;DHT22;9011;33.236;-97.118;2023-08-24T14:12:01;31.70;99.90
17774;DHT22;9011;33.236;-97.118;2023-08-24T14:14:29;31.90;99.90
17774;DHT22;9011;33.236;-97.118;2023-08-24T14:16:57;32.00;99.90
17774;DHT22;9011;33.236;-97.118;2023-08-24T14:19:24;32.20;99.90
17774;DHT22;9011;33.236;-97.118;2023-08-24T14:21:52;32.30;99.90
17774;DHT22;9011;33.236;-97.118;2023-08-24T14:24:20;32.50;99.90
17774;DHT22;9011;33.236;-97.118;2023-08-24T14:26:48;32.70;99.90
17774;DHT22;9011;33.236;-97.118;2023-08-24T14:29:16;32.80;99.90
17774;DHT22;9011;33.236;-97.118;2023-08-24T14:31:44;32.80;99.90
17774;DHT22;9011;33.236;-97.118;2023-08-24T14:34:11;33.00;99.90
17774;DHT22;9011;33.236;-97.118;2023-08-24T14:36:39;33.20;99.90
17774;DHT22;9011;33.236;-97.118;2023-08-24T14:39:07;33.20;99.90
17774;DHT22;9011;33.236;-97.118;2023-08-24T14:41:34;33.40;99.90
17774;DHT22;9011;33.236;-97.118;2023-08-24T14:44:03;33.60;99.90
17774;DHT22;9011;33.236;-97.118;2023-08-24T14:46:30;33.60;99.90
17774;DHT22;9011;33.236;-97.118;2023-08-24T14:48:59;33.70;99.90
17774;DHT22;9011;33.236;-97.118;2023-08-24T14:51:26;33.90;99.70
17774;DHT22;9011;33.236;-97.118;2023-08-24T14:53:54;34.10;99.10
17774;DHT22;9011;33.236;-97.118;2023-08-24T14:56:22;34.20;98.90
17774;DHT22;9011;33.236;-97.118;2023-08-24T14:58:49;33.90;98.60
17774;DHT22;9011;33.236;-97.118;2023-08-24T15:01:18;34.00;98.60
17774;DHT22;9011;33.236;-97.118;2023-08-24T15:03:45;34.20;98.40
17774;DHT22;9011;33.236;-97.118;2023-08-24T15:06:13;34.10;98.70
17774;DHT22;9011;33.236;-97.118;2023-08-24T15:08:40;34.30;98.30
17774;DHT22;9011;33.236;-97.118;2023-08-24T15:11:08;34.50;97.80
17774;DHT22;9011;33.236;-97.118;2023-08-24T15:13:38;34.60;97.10
17774;DHT22;9011;33.236;-97.118;2023-08-24T15:16:06;34.70;97.50
17774;DHT22;9011;33.236;-97.118;2023-08-24T15:18:36;34.70;96.80
17774;DHT22;9011;33.236;-97.118;2023-08-24T15:21:04;34.90;96.50
17774;DHT22;9011;33.236;-97.118;2023-08-24T15:23:31;35.10;96.20